Heyuan, China
Current Conditions -  °F | °C
As of 8:30 PM on Sunday 21 Dec 2014 (Local Time) from ZGGG Reporting Station
Clear Clear  
Wind Chill: 55°   Ceiling: Unl
Heat Index: 55°   Visibility: 6mi
Dew Point: 36°   Wind: 7mph
Humidity: 47%   Direction: 30°NNE
Pressure: 30.3"   Gusts: NA
Location:  23.73°N, 114.68°E
Report Text: ZGGG 211230Z 03003MPS CAVOK 13/02 Q1026 NOSIG
Loading
Personal Weather Stations






























Interactive Weather Map New forecast layout! Learn more

10-Day Weather Forecast

Advertisements
Track Severe Weather on mobile